Time;durP1;ratioP1;P1;durP2;ratioP2;P2;SDS_P1;SDS_P2;PMS_P1;PMS_P2;Temp;Humidity;BMP_temperature;BMP_pressure;BME280_temperature;BME280_humidity;BME280_pressure;Samples;Min_cycle;Max_cycle;Signal;HPM_P1;HPM_P2
2021/12/20 00:01:24;;;;;;;30.60;4.00;;;;;;;5.12;100.00;102526.66;4993482;28;20029;-75
2021/12/20 00:03:49;;;;;;;26.55;3.67;;;;;;;5.08;100.00;102531.50;4993243;28;20064;-75
2021/12/20 00:06:15;;;;;;;24.50;3.63;;;;;;;5.09;100.00;102527.81;5001996;28;20473;-75
2021/12/20 00:08:40;;;;;;;30.42;3.95;;;;;;;5.04;100.00;102504.38;4991330;28;20029;-77
2021/12/20 00:11:06;;;;;;;20.90;3.17;;;;;;;5.03;100.00;102524.00;4993627;28;20083;-77
2021/12/20 00:13:31;;;;;;;28.02;3.95;;;;;;;5.01;100.00;102510.03;5002548;28;20381;-76
2021/12/20 00:15:59;;;;;;;24.00;3.90;;;;;;;5.03;100.00;102518.66;4993189;28;20098;-74
2021/12/20 00:18:25;;;;;;;31.15;4.22;;;;;;;5.02;100.00;102517.00;4993107;28;20092;-77
2021/12/20 00:20:51;;;;;;;27.48;4.22;;;;;;;5.05;100.00;102522.03;5007703;28;20137;-76
2021/12/20 00:23:16;;;;;;;29.30;4.70;;;;;;;5.10;100.00;102518.84;4993330;28;20749;-75
2021/12/20 00:25:48;;;;;;;29.23;4.78;;;;;;;5.12;100.00;102510.69;4993244;28;21038;-76
2021/12/20 00:28:20;;;;;;;30.50;4.20;;;;;;;5.12;100.00;102511.50;4992673;28;20500;-76
2021/12/20 00:30:46;;;;;;;31.48;4.78;;;;;;;5.10;100.00;102518.00;4992021;28;20029;-76
2021/12/20 00:33:14;;;;;;;22.75;3.38;;;;;;;5.05;100.00;102506.06;4992567;28;20080;-77
2021/12/20 00:35:42;;;;;;;27.45;4.38;;;;;;;5.07;100.00;102511.19;4993336;28;20057;-76
2021/12/20 00:40:52;;;;;;;23.83;3.70;;;;;;;5.01;100.00;102503.88;5007914;28;20216;-76
2021/12/20 00:43:18;;;;;;;23.52;4.28;;;;;;;5.00;100.00;102503.06;4995675;28;20068;-76
2021/12/20 00:45:49;;;;;;;19.67;3.55;;;;;;;4.99;100.00;102496.06;4993496;28;20037;-76
2021/12/20 00:48:18;;;;;;;24.08;3.47;;;;;;;5.03;100.00;102507.19;4992268;28;20107;-76
2021/12/20 00:50:44;;;;;;;23.52;3.67;;;;;;;5.02;100.00;102502.88;4993070;28;20192;-76
2021/12/20 00:53:13;;;;;;;25.95;4.03;;;;;;;4.91;100.00;102484.63;4993975;28;20033;-76
2021/12/20 00:55:39;;;;;;;25.42;3.50;;;;;;;4.97;100.00;102491.94;5006720;28;20518;-76
2021/12/20 00:58:10;;;;;;;27.33;3.85;;;;;;;4.90;100.00;102485.63;4996174;28;20045;-77
2021/12/20 01:00:39;;;;;;;28.23;3.85;;;;;;;4.96;100.00;102501.72;4992877;28;20038;-77
2021/12/20 01:03:06;;;;;;;31.20;3.47;;;;;;;4.98;100.00;102505.06;4980648;28;20091;-77
2021/12/20 01:05:32;;;;;;;21.90;3.58;;;;;;;4.98;100.00;102499.75;5001113;28;20133;-76
2021/12/20 01:08:01;;;;;;;16.63;3.47;;;;;;;4.97;100.00;102491.94;5006856;28;20166;-76
2021/12/20 01:10:29;;;;;;;30.13;4.40;;;;;;;4.95;100.00;102500.06;4995906;28;20786;-76
2021/12/20 01:12:59;;;;;;;36.95;4.63;;;;;;;5.00;100.00;102502.22;4992227;28;20034;-76
2021/12/20 01:15:30;;;;;;;28.50;4.07;;;;;;;4.91;100.00;102484.63;4990792;28;20092;-76
2021/12/20 01:17:56;;;;;;;38.38;4.28;;;;;;;4.97;100.00;102490.09;4992325;28;20495;-76
2021/12/20 01:20:24;;;;;;;34.40;4.45;;;;;;;4.98;100.00;102493.59;4990629;28;20053;-76
2021/12/20 01:22:52;;;;;;;30.65;4.35;;;;;;;5.02;100.00;102486.91;4990635;28;20052;-76
2021/12/20 01:25:19;;;;;;;26.10;4.65;;;;;;;5.01;100.00;102493.25;4995179;28;20103;-76
2021/12/20 01:27:44;;;;;;;31.80;4.13;;;;;;;4.96;100.00;102491.06;4990595;28;20430;-76
2021/12/20 01:30:12;;;;;;;28.50;3.72;;;;;;;4.94;100.00;102492.25;4992776;28;20030;-76
2021/12/20 01:32:40;;;;;;;34.45;3.80;;;;;;;4.98;100.00;102493.59;4991876;28;20778;-76
2021/12/20 01:35:07;;;;;;;27.05;3.22;;;;;;;4.97;100.00;102487.44;4999956;28;20435;-76
2021/12/20 01:37:33;;;;;;;25.85;3.78;;;;;;;4.95;100.00;102489.41;4990039;28;20595;-76
2021/12/20 01:39:59;;;;;;;35.35;4.72;;;;;;;4.85;100.00;102478.13;5005919;28;20164;-76
2021/12/20 01:42:26;;;;;;;36.45;4.82;;;;;;;4.94;100.00;102492.25;5006291;28;20106;-76
2021/12/20 01:44:56;;;;;;;26.15;3.75;;;;;;;4.92;100.00;102487.09;4996854;28;20034;-76
2021/12/20 01:47:22;;;;;;;25.23;3.42;;;;;;;4.91;100.00;102479.28;4991579;28;20121;-76
2021/12/20 01:50:01;;;;;;;26.02;3.80;;;;;;;4.87;100.00;102485.94;4992181;28;20095;-76
2021/12/20 01:52:29;;;;;;;22.73;3.58;;;;;;;4.93;100.00;102491.41;4991331;28;20037;-76
2021/12/20 01:54:57;;;;;;;22.98;3.20;;;;;;;4.91;100.00;102490.75;4991209;28;20033;-76
2021/12/20 01:57:24;;;;;;;24.08;3.78;;;;;;;4.91;100.00;102498.75;4991528;28;20408;-77
2021/12/20 01:59:49;;;;;;;26.60;3.75;;;;;;;4.94;100.00;102486.94;4996820;28;20807;-77
2021/12/20 02:02:17;;;;;;;25.92;3.50;;;;;;;4.94;100.00;102492.25;4997107;28;20536;-77
2021/12/20 02:04:48;;;;;;;24.85;3.53;;;;;;;4.91;100.00;102482.78;4990769;28;20474;-77
2021/12/20 02:07:32;;;;;;;20.30;4.03;;;;;;;4.89;100.00;102474.16;5006108;28;20049;-76
2021/12/20 02:10:00;;;;;;;23.58;3.20;;;;;;;4.87;100.00;102475.28;5003777;28;20038;-76
2021/12/20 02:12:25;;;;;;;22.38;3.70;;;;;;;4.85;100.00;102472.81;5005809;28;20124;-76
2021/12/20 02:14:51;;;;;;;32.38;3.72;;;;;;;4.87;100.00;102480.63;4990824;28;20497;-76
2021/12/20 02:17:16;;;;;;;26.45;4.55;;;;;;;4.81;100.00;102481.31;4991720;28;20144;-76
2021/12/20 02:19:45;;;;;;;25.75;3.20;;;;;;;4.75;100.00;102483.63;4990964;28;20081;-76
2021/12/20 02:22:13;;;;;;;31.08;4.03;;;;;;;4.78;100.00;102498.41;4990920;28;20037;-76
2021/12/20 02:24:39;;;;;;;28.33;3.83;;;;;;;4.69;100.00;102473.63;4990943;28;20457;-76
2021/12/20 02:27:07;;;;;;;23.23;4.22;;;;;;;4.75;100.00;102475.66;4990994;28;20033;-76
2021/12/20 02:29:46;;;;;;;23.73;3.55;;;;;;;4.67;100.00;102474.81;4990070;28;20030;-76
2021/12/20 02:37:49;;;;;;;25.67;3.85;;;;;;;4.68;100.00;102479.97;4986172;28;20042;-75
2021/12/20 02:40:21;;;;;;;23.38;3.65;;;;;;;4.66;100.00;102484.63;4990205;28;20618;-75
2021/12/20 02:42:52;;;;;;;26.33;4.18;;;;;;;4.67;100.00;102483.63;4990525;28;20099;-75
2021/12/20 02:45:20;;;;;;;25.60;3.47;;;;;;;4.69;100.00;102486.94;4990854;28;20064;-75
2021/12/20 02:47:49;;;;;;;25.17;3.88;;;;;;;4.69;100.00;102481.63;4992143;28;21863;-75
2021/12/20 02:50:15;;;;;;;20.15;3.30;;;;;;;4.66;100.00;102478.47;4990258;28;20038;-75
2021/12/20 02:52:43;;;;;;;23.90;3.40;;;;;;;4.69;100.00;102473.63;4989946;28;20040;-75
2021/12/20 02:55:09;;;;;;;23.15;3.05;;;;;;;4.69;100.00;102473.63;4999267;28;20042;-75
2021/12/20 02:57:38;;;;;;;29.60;3.75;;;;;;;4.65;100.00;102464.34;4997131;28;20099;-76
2021/12/20 03:00:06;;;;;;;23.13;4.03;;;;;;;4.71;100.00;102470.81;4990512;28;20209;-76
2021/12/20 03:02:34;;;;;;;20.40;3.72;;;;;;;4.68;100.00;102469.31;4989794;28;20298;-76
2021/12/20 03:05:02;;;;;;;25.52;3.30;;;;;;;4.68;100.00;102473.81;4989187;28;20135;-76
2021/12/20 03:07:28;;;;;;;25.58;3.28;;;;;;;4.70;100.00;102477.97;4991534;28;20048;-76
2021/12/20 03:10:00;;;;;;;23.65;3.38;;;;;;;4.71;100.00;102474.28;4994522;28;20037;-77
2021/12/20 03:12:32;;;;;;;21.27;3.15;;;;;;;4.67;100.00;102465.00;4990423;28;20189;-76
2021/12/20 03:15:03;;;;;;;21.45;3.60;;;;;;;4.68;100.00;102473.81;4992855;28;20069;-76
2021/12/20 03:17:31;;;;;;;20.58;3.42;;;;;;;4.73;100.00;102479.47;4989748;28;20033;-76
2021/12/20 03:19:59;;;;;;;25.38;3.78;;;;;;;4.73;100.00;102474.97;4989798;28;20461;-77
2021/12/20 03:22:24;;;;;;;22.25;3.88;;;;;;;4.74;100.00;102466.00;4989772;28;20052;-77
2021/12/20 03:24:52;;;;;;;25.88;4.07;;;;;;;4.69;100.00;102463.00;4991093;28;20038;-76
2021/12/20 03:27:18;;;;;;;21.23;3.90;;;;;;;4.71;100.00;102471.63;5004843;28;20037;-76
2021/12/20 03:29:46;;;;;;;28.38;3.90;;;;;;;4.67;100.00;102470.31;4988266;28;20040;-76
2021/12/20 03:32:11;;;;;;;23.75;3.17;;;;;;;4.64;100.00;102462.69;4975994;28;20033;-76
2021/12/20 03:34:39;;;;;;;22.95;3.75;;;;;;;4.61;100.00;102465.66;4989581;28;20091;-68
2021/12/20 03:37:04;;;;;;;24.45;3.70;;;;;;;4.61;100.00;102465.66;4989863;28;20033;-70
2021/12/20 03:39:30;;;;;;;18.05;3.08;;;;;;;4.59;100.00;102467.66;5004683;28;20502;-70
2021/12/20 03:41:56;;;;;;;27.15;3.70;;;;;;;4.58;100.00;102468.66;4989641;28;20148;-68
2021/12/20 03:44:24;;;;;;;33.08;4.13;;;;;;;4.58;100.00;102460.69;4979187;28;20076;-68
2021/12/20 03:46:51;;;;;;;34.08;4.30;;;;;;;4.59;100.00;102467.66;4990438;28;20096;-69
2021/12/20 03:49:17;;;;;;;25.67;4.55;;;;;;;4.57;100.00;102453.72;4988965;28;20030;-69
2021/12/20 03:51:44;;;;;;;31.85;3.92;;;;;;;4.57;100.00;102459.03;4993248;28;20181;-70
2021/12/20 03:54:10;;;;;;;19.65;3.50;;;;;;;4.53;100.00;102457.69;4995248;28;20029;-68
2021/12/20 03:56:36;;;;;;;21.75;3.55;;;;;;;4.54;100.00;102456.69;4990877;28;20312;-70
2021/12/20 03:59:03;;;;;;;20.90;3.65;;;;;;;4.56;100.00;102457.38;4989826;28;20034;-68
2021/12/20 04:01:29;;;;;;;27.42;4.57;;;;;;;4.55;100.00;102457.50;4995032;28;20094;-68
2021/12/20 04:03:57;;;;;;;19.92;4.53;;;;;;;4.57;100.00;102459.03;4991409;28;20646;-70
2021/12/20 04:06:23;;;;;;;29.63;4.43;;;;;;;4.57;100.00;102459.03;4987281;28;20038;-70
2021/12/20 04:08:49;;;;;;;28.48;4.15;;;;;;;4.57;100.00;102451.06;4982248;28;20319;-70
2021/12/20 04:11:17;;;;;;;35.13;4.32;;;;;;;4.61;100.00;102452.38;4992898;28;20124;-70
2021/12/20 04:13:42;;;;;;;26.70;4.00;;;;;;;4.60;100.00;102448.06;4991928;28;20026;-70
2021/12/20 04:16:08;;;;;;;27.63;3.95;;;;;;;4.63;100.00;102447.72;5007308;28;20470;-70
2021/12/20 04:18:36;;;;;;;25.05;4.20;;;;;;;4.57;100.00;102451.06;4992543;28;20068;-70
2021/12/20 04:21:06;;;;;;;22.33;3.30;;;;;;;4.56;100.00;102438.75;4997964;28;20050;-69
2021/12/20 04:23:34;;;;;;;21.42;2.85;;;;;;;4.54;100.00;102442.56;4993301;28;20250;-69
2021/12/20 04:26:00;;;;;;;28.13;3.20;;;;;;;4.47;100.00;102426.44;4993437;28;20033;-70
2021/12/20 04:28:26;;;;;;;19.88;2.78;;;;;;;4.57;100.00;102445.75;4995398;28;20265;-70
2021/12/20 04:30:51;;;;;;;29.77;4.07;;;;;;;4.52;100.00;102453.38;4993396;28;20034;-70
2021/12/20 04:33:17;;;;;;;22.88;3.55;;;;;;;4.55;100.00;102460.16;4964828;28;20025;-70
2021/12/20 04:35:42;;;;;;;27.98;3.83;;;;;;;4.47;100.00;102453.03;4992820;28;20100;-70
2021/12/20 04:38:10;;;;;;;22.55;3.38;;;;;;;4.49;100.00;102461.69;4991738;28;20200;-70
2021/12/20 04:40:39;;;;;;;20.35;3.47;;;;;;;4.41;100.00;102454.53;4993163;28;20041;-69
2021/12/20 04:43:08;;;;;;;29.58;3.63;;;;;;;4.46;100.00;102456.69;4990865;28;20034;-70
2021/12/20 04:45:35;;;;;;;26.30;3.60;;;;;;;4.49;100.00;102464.34;4992935;28;20029;-69
2021/12/20 04:48:00;;;;;;;26.95;3.20;;;;;;;4.51;100.00;102459.69;4998256;28;20036;-70
2021/12/20 04:50:28;;;;;;;22.77;4.60;;;;;;;4.52;100.00;102456.03;5006797;28;20036;-69
2021/12/20 04:52:57;;;;;;;22.52;3.30;;;;;;;4.55;100.00;102452.19;4997703;28;20124;-70
2021/12/20 04:55:27;;;;;;;16.42;2.78;;;;;;;4.53;100.00;102449.72;4992274;28;20419;-69
2021/12/20 04:57:52;;;;;;;19.98;2.90;;;;;;;4.48;100.00;102454.72;5000771;28;20029;-69
2021/12/20 05:00:22;;;;;;;21.13;3.42;;;;;;;4.52;100.00;102460.50;4990804;28;20794;-69
2021/12/20 05:02:48;;;;;;;25.13;3.20;;;;;;;4.46;100.00;102456.69;5007969;28;20061;-70
2021/12/20 05:05:16;;;;;;;24.05;4.53;;;;;;;4.48;100.00;102455.53;4992068;28;20060;-70
2021/12/20 05:07:44;;;;;;;30.58;3.72;;;;;;;4.48;100.00;102468.00;5006335;28;20057;-69
2021/12/20 05:10:15;;;;;;;21.63;3.42;;;;;;;4.47;100.00;102463.66;4990036;28;21220;-70
2021/12/20 05:12:41;;;;;;;17.02;2.90;;;;;;;4.43;100.00;102462.34;5001011;28;20107;-70
2021/12/20 05:15:11;;;;;;;18.63;3.28;;;;;;;4.45;100.00;102460.34;4990149;28;20041;-69
2021/12/20 05:17:37;;;;;;;21.08;4.05;;;;;;;4.40;100.00;102457.34;4991443;28;20326;-69
2021/12/20 05:20:04;;;;;;;22.55;3.08;;;;;;;4.42;100.00;102469.47;4991790;28;20042;-69
2021/12/20 05:22:34;;;;;;;22.27;3.40;;;;;;;4.43;100.00;102470.31;5005942;28;20034;-70
2021/12/20 05:25:02;;;;;;;18.67;3.13;;;;;;;4.41;100.00;102470.47;4991966;28;20038;-70
2021/12/20 05:27:28;;;;;;;23.42;2.63;;;;;;;4.35;100.00;102464.97;4995467;28;20033;-69
2021/12/20 05:29:54;;;;;;;17.48;3.25;;;;;;;4.40;100.00;102473.31;4991111;28;20053;-70
2021/12/20 05:32:19;;;;;;;19.42;2.97;;;;;;;4.41;100.00;102464.34;4992655;28;20100;-70
2021/12/20 05:34:45;;;;;;;19.85;2.80;;;;;;;4.37;100.00;102465.63;4996324;28;20448;-69
2021/12/20 05:37:13;;;;;;;15.02;2.88;;;;;;;4.35;100.00;102468.47;4991429;28;20504;-69
2021/12/20 05:39:40;;;;;;;23.55;3.47;;;;;;;4.37;100.00;102473.63;4994557;28;20030;-69
2021/12/20 05:42:06;;;;;;;14.93;2.65;;;;;;;4.38;100.00;102468.13;5001290;28;20033;-69
2021/12/20 05:44:35;;;;;;;21.10;2.90;;;;;;;4.39;100.00;102468.97;4991786;28;20497;-68
2021/12/20 05:47:00;;;;;;;18.10;2.85;;;;;;;4.39;100.00;102467.13;4997405;28;20105;-69
2021/12/20 05:49:26;;;;;;;12.45;2.67;;;;;;;4.42;100.00;102476.63;4991493;28;20168;-69
2021/12/20 05:51:51;;;;;;;19.75;2.38;;;;;;;4.45;100.00;102478.94;4991278;28;20053;-68
2021/12/20 05:54:19;;;;;;;12.65;1.92;;;;;;;4.47;100.00;102479.59;4995810;28;20079;-68
2021/12/20 05:56:44;;;;;;;9.23;1.92;;;;;;;4.43;100.00;102467.66;4990718;28;22145;-68
2021/12/20 05:59:10;;;;;;;15.95;2.13;;;;;;;4.41;100.00;102453.69;4991356;28;20064;-69
2021/12/20 06:01:36;;;;;;;11.38;1.98;;;;;;;4.54;100.00;102480.59;4991827;28;20080;-68
2021/12/20 06:04:01;;;;;;;12.52;2.67;;;;;;;4.56;100.00;102483.09;4991041;28;20422;-69
2021/12/20 06:06:28;;;;;;;13.02;1.90;;;;;;;4.53;100.00;102481.59;4991158;28;20432;-70
2021/12/20 06:08:54;;;;;;;11.93;2.05;;;;;;;4.53;100.00;102481.59;4990897;28;20033;-69
2021/12/20 06:11:19;;;;;;;12.18;1.83;;;;;;;4.50;100.00;102484.59;4989879;28;20098;-69
2021/12/20 06:13:45;;;;;;;13.43;2.95;;;;;;;4.46;100.00;102483.25;4998401;28;20087;-69
2021/12/20 06:16:13;;;;;;;13.00;2.13;;;;;;;4.44;100.00;102483.44;4991210;28;20740;-69
2021/12/20 06:18:38;;;;;;;18.33;2.35;;;;;;;4.43;100.00;102494.22;4989426;28;20033;-69
2021/12/20 06:21:04;;;;;;;10.40;2.25;;;;;;;4.45;100.00;102493.06;4991586;28;20501;-70
2021/12/20 06:23:32;;;;;;;13.90;2.38;;;;;;;4.44;100.00;102495.88;4991608;28;20216;-70
2021/12/20 06:25:57;;;;;;;18.33;2.80;;;;;;;4.46;100.00;102496.53;4993882;28;20033;-70
2021/12/20 06:28:25;;;;;;;15.68;2.50;;;;;;;4.46;100.00;102500.03;4990017;28;20559;-70
2021/12/20 06:30:53;;;;;;;14.80;2.67;;;;;;;4.48;100.00;102491.91;4988618;28;20041;-71
2021/12/20 06:33:19;;;;;;;12.60;2.50;;;;;;;4.50;100.00;102493.41;4989629;28;20038;-70
2021/12/20 06:35:46;;;;;;;11.20;2.42;;;;;;;4.47;100.00;102484.91;5006078;28;20520;-70
2021/12/20 06:38:18;;;;;;;10.88;2.10;;;;;;;4.49;100.00;102497.06;4997002;28;20453;-70
2021/12/20 06:40:43;;;;;;;;;;;;;;;4.49;100.00;102498.91;4979631;28;20100;-69
2021/12/20 06:43:09;;;;;;;13.52;2.47;;;;;;;4.47;100.00;102492.88;4989991;28;21817;-69
2021/12/20 06:45:35;;;;;;;15.55;2.20;;;;;;;4.49;100.00;102504.22;4989383;28;20430;-68
2021/12/20 06:48:00;;;;;;;15.93;2.67;;;;;;;4.48;100.00;102497.22;4989005;28;20026;-69
2021/12/20 06:50:26;;;;;;;17.70;3.03;;;;;;;4.46;100.00;102486.75;4991380;28;20057;-70
2021/12/20 06:52:51;;;;;;;16.88;3.03;;;;;;;4.43;100.00;102486.25;4989728;28;20508;-71
2021/12/20 06:55:19;;;;;;;14.65;2.30;;;;;;;4.29;100.00;102476.25;4993539;28;20041;-71
2021/12/20 06:57:53;;;;;;;12.85;2.03;;;;;;;4.41;100.00;102496.22;4987883;28;20034;-71
2021/12/20 07:00:19;;;;;;;13.90;2.20;;;;;;;4.42;100.00;102482.75;4997618;28;20049;-70
2021/12/20 07:02:44;;;;;;;13.63;2.38;;;;;;;4.42;100.00;102484.59;4990333;28;20037;-71
2021/12/20 07:05:10;;;;;;;14.30;2.15;;;;;;;4.37;100.00;102490.38;4989303;28;20026;-70
2021/12/20 07:07:36;;;;;;;12.90;1.83;;;;;;;4.40;100.00;102495.41;4996572;28;20048;-70
2021/12/20 07:10:03;;;;;;;14.93;1.92;;;;;;;4.39;100.00;102491.03;4988791;28;20116;-70
2021/12/20 07:12:34;;;;;;;7.97;1.52;;;;;;;4.35;100.00;102487.06;4990777;28;20132;-70
2021/12/20 07:15:00;;;;;;;11.15;1.90;;;;;;;4.29;100.00;102486.88;4990076;28;20473;-70
2021/12/20 07:17:29;;;;;;;15.07;2.25;;;;;;;4.34;100.00;102495.22;4989222;28;20040;-70
2021/12/20 07:19:55;;;;;;;10.65;1.63;;;;;;;4.34;100.00;102496.03;4998964;28;20533;-69
2021/12/20 07:22:21;;;;;;;8.48;1.63;;;;;;;4.28;100.00;102487.88;5004759;28;20529;-69
2021/12/20 07:24:46;;;;;;;9.05;1.88;;;;;;;4.32;100.00;102500.69;4990154;28;20125;-70
2021/12/20 07:27:12;;;;;;;9.68;2.10;;;;;;;4.30;100.00;102493.84;4990125;28;20033;-70
2021/12/20 07:29:38;;;;;;;14.20;1.77;;;;;;;4.29;100.00;102487.72;4990550;28;20084;-70
2021/12/20 07:32:04;;;;;;;12.80;2.10;;;;;;;4.35;100.00;102492.38;4998495;28;20036;-70
2021/12/20 07:34:32;;;;;;;12.77;2.45;;;;;;;4.34;100.00;102493.38;5004959;28;20022;-70
2021/12/20 07:37:05;;;;;;;11.32;1.80;;;;;;;4.36;100.00;102498.53;4991724;28;20052;-70
2021/12/20 07:39:30;;;;;;;13.02;1.98;;;;;;;4.33;100.00;102498.88;4993240;28;20506;-70
2021/12/20 07:41:56;;;;;;;10.40;1.95;;;;;;;4.38;100.00;102507.16;4992708;28;20208;-70
2021/12/20 07:44:22;;;;;;;19.60;4.05;;;;;;;4.34;100.00;102498.69;4992675;28;20026;-73
2021/12/20 07:46:48;;;;;;;10.43;2.75;;;;;;;4.28;100.00;102501.16;4992753;28;20037;-70
2021/12/20 07:49:14;;;;;;;15.40;2.90;;;;;;;4.20;100.00;102508.13;4993747;28;20028;-70
2021/12/20 07:51:39;;;;;;;17.98;2.72;;;;;;;4.12;100.00;102502.78;4993122;28;20033;-70
2021/12/20 07:54:05;;;;;;;11.57;2.20;;;;;;;4.09;100.00;102508.44;4993694;28;20076;-69
2021/12/20 07:56:30;;;;;;;15.45;1.92;;;;;;;3.98;100.00;102502.56;4993776;28;20144;-71
2021/12/20 07:58:56;;;;;;;11.13;1.98;;;;;;;3.89;100.00;102496.41;4996847;28;20044;-71
2021/12/20 08:01:26;;;;;;;17.27;1.92;;;;;;;3.83;100.00;102507.69;4999234;28;20057;-71
2021/12/20 08:03:52;;;;;;;13.93;2.40;;;;;;;3.87;100.00;102509.00;4994226;28;20167;-72
2021/12/20 08:06:20;;;;;;;12.32;2.40;;;;;;;3.85;100.00;102506.50;4993767;28;21063;-71
2021/12/20 08:08:46;;;;;;;11.55;1.50;;;;;;;3.81;100.00;102499.00;4994521;28;20527;-71
2021/12/20 08:11:12;;;;;;;10.65;1.70;;;;;;;3.74;100.00;102504.13;5008392;28;20026;-71
2021/12/20 08:13:44;;;;;;;8.82;1.65;;;;;;;3.77;100.00;102508.31;5002739;28;20076;-72
2021/12/20 08:16:12;;;;;;;;;;;;;;;3.79;100.00;102508.97;4994766;28;20099;-71
2021/12/20 08:18:40;;;;;;;10.90;1.90;;;;;;;3.73;100.00;102493.66;5008414;28;20344;-71
2021/12/20 08:21:05;;;;;;;14.15;3.13;;;;;;;3.71;100.00;102495.66;4997470;28;20355;-71
2021/12/20 08:23:31;;;;;;;13.30;2.00;;;;;;;3.80;100.00;102516.78;4998324;28;20038;-71
2021/12/20 08:25:57;;;;;;;11.43;1.98;;;;;;;3.81;100.00;102518.44;5008471;28;20056;-71
2021/12/20 08:28:22;;;;;;;9.32;1.67;;;;;;;3.76;100.00;102514.59;4995331;28;20030;-70
2021/12/20 08:30:50;;;;;;;10.90;1.92;;;;;;;3.77;100.00;102521.59;4993975;28;20034;-70
2021/12/20 08:33:18;;;;;;;12.80;2.30;;;;;;;3.73;100.00;102520.22;4993120;28;20033;-70
2021/12/20 08:35:49;;;;;;;12.27;1.52;;;;;;;3.68;100.00;102517.22;4994152;28;20042;-71
2021/12/20 08:38:17;;;;;;;12.68;2.58;;;;;;;3.54;100.00;102498.22;4993051;28;20164;-70
2021/12/20 08:40:46;;;;;;;14.15;1.85;;;;;;;3.50;100.00;102510.16;5007695;28;20900;-71
2021/12/20 08:43:17;;;;;;;12.60;2.95;;;;;;;3.55;100.00;102515.81;4992734;28;20408;-71
2021/12/20 08:45:43;;;;;;;11.23;2.33;;;;;;;3.51;100.00;102506.53;4991714;28;20040;-71
2021/12/20 08:48:08;;;;;;;12.18;2.30;;;;;;;3.53;100.00;102512.50;4992171;28;20022;-71
2021/12/20 08:50:36;;;;;;;15.18;2.22;;;;;;;3.56;100.00;102512.16;4993326;28;20074;-71
2021/12/20 08:53:07;;;;;;;17.80;2.53;;;;;;;3.62;100.00;102516.03;5000845;28;20837;-70
2021/12/20 08:55:33;;;;;;;11.52;1.85;;;;;;;3.61;100.00;102504.56;5008076;28;20092;-70
2021/12/20 08:57:59;;;;;;;11.55;1.80;;;;;;;3.72;100.00;102511.41;4992132;28;20045;-72
2021/12/20 09:00:32;;;;;;;9.73;1.88;;;;;;;3.81;100.00;102520.25;5009143;28;20034;-70
2021/12/20 09:02:59;;;;;;;7.32;1.48;;;;;;;3.87;100.00;102519.63;4991774;28;20612;-71
2021/12/20 09:05:26;;;;;;;7.82;1.40;;;;;;;3.97;100.00;102520.31;4979379;28;20145;-70
2021/12/20 09:08:04;;;;;;;6.00;1.50;;;;;;;4.05;100.00;102528.31;4992098;28;20609;-71
2021/12/20 09:10:31;;;;;;;10.70;2.63;;;;;;;4.11;100.00;102525.03;4985270;28;20044;-70
2021/12/20 09:12:57;;;;;;;6.47;1.67;;;;;;;4.06;100.00;102513.22;4991971;28;21918;-70
2021/12/20 09:15:23;;;;;;;8.32;1.67;;;;;;;4.10;100.00;102520.72;4992100;28;20072;-71
2021/12/20 09:17:52;;;;;;;14.32;1.80;;;;;;;4.21;100.00;102539.00;5008572;28;20124;-71
2021/12/20 09:20:20;;;;;;;7.55;1.67;;;;;;;4.23;100.00;102530.88;4991364;28;20050;-71
2021/12/20 09:22:53;;;;;;;6.82;1.40;;;;;;;4.34;100.00;102532.41;4997385;28;20042;-71
2021/12/20 09:25:23;;;;;;;8.88;1.42;;;;;;;4.27;100.00;102531.38;4993386;28;20041;-70
2021/12/20 09:27:50;;;;;;;7.18;1.83;;;;;;;4.38;100.00;102531.06;4995484;28;20758;-70
2021/12/20 09:30:19;;;;;;;8.77;1.30;;;;;;;4.45;100.00;102535.59;4992944;28;20208;-70
2021/12/20 09:32:44;;;;;;;8.05;1.67;;;;;;;4.47;100.00;102535.41;4999205;28;20049;-70
2021/12/20 09:35:12;;;;;;;3.25;1.10;;;;;;;4.40;100.00;102531.78;4991024;28;20141;-67
2021/12/20 09:37:38;;;;;;;9.18;2.00;;;;;;;4.56;100.00;102547.75;4991723;28;20065;-70
2021/12/20 09:40:12;;;;;;;7.75;1.60;;;;;;;4.55;100.00;102540.75;5000776;28;20036;-70
2021/12/20 09:42:49;;;;;;;9.80;1.73;;;;;;;4.60;100.00;102553.56;4992490;28;20030;-70
2021/12/20 09:45:19;;;;;;;5.65;1.40;;;;;;;4.68;100.00;102556.22;4993351;28;20044;-69
2021/12/20 09:47:44;;;;;;;6.65;1.63;;;;;;;4.60;100.00;102549.06;4990910;28;20091;-71
2021/12/20 09:50:12;;;;;;;12.23;1.70;;;;;;;4.71;100.00;102558.56;4991519;28;20033;-70
2021/12/20 09:52:43;;;;;;;7.32;1.67;;;;;;;4.75;100.00;102559.91;4996313;28;20195;-70
2021/12/20 09:55:14;;;;;;;11.53;1.83;;;;;;;4.74;100.00;102563.56;5007474;28;20164;-71
2021/12/20 09:57:42;;;;;;;9.60;1.70;;;;;;;4.68;100.00;102551.75;5005504;28;20342;-70
2021/12/20 10:00:13;;;;;;;7.13;1.73;;;;;;;4.75;100.00;102557.25;4991888;28;20527;-70
2021/12/20 10:02:38;;;;;;;5.78;1.45;;;;;;;4.77;100.00;102553.41;4990038;28;20032;-71
2021/12/20 10:05:07;;;;;;;7.10;1.35;;;;;;;4.82;100.00;102557.41;4991352;28;20610;-70
2021/12/20 10:07:33;;;;;;;8.30;1.58;;;;;;;4.76;100.00;102543.78;4991383;28;20060;-70
2021/12/20 10:10:03;;;;;;;7.38;1.63;;;;;;;4.94;100.00;102562.22;4991965;28;21879;-70
2021/12/20 10:12:29;;;;;;;9.90;1.80;;;;;;;4.98;100.00;102560.91;4994551;28;20327;-70
2021/12/20 10:14:59;;;;;;;8.18;1.60;;;;;;;5.01;100.00;102562.41;4990723;28;20060;-70
2021/12/20 10:17:29;;;;;;;8.75;1.40;;;;;;;4.87;100.00;102533.81;5005974;28;20025;-71
2021/12/20 10:20:24;;;;;;;10.32;2.50;;;;;;;5.08;100.00;102568.72;5005333;28;20034;-72
2021/12/20 10:22:51;;;;;;;7.70;1.42;;;;;;;5.07;100.00;102564.41;4991114;28;21088;-71
2021/12/20 10:25:26;;;;;;;8.68;1.45;;;;;;;5.11;100.00;102571.03;5005680;28;20519;-72
2021/12/20 10:28:07;;;;;;;8.88;1.35;;;;;;;5.08;100.00;102574.06;4989872;28;20640;-72
2021/12/20 10:30:36;;;;;;;12.07;1.80;;;;;;;5.11;100.00;102584.34;4990724;28;20033;-70
2021/12/20 10:33:04;;;;;;;11.70;1.65;;;;;;;5.16;100.00;102582.03;4972955;28;20029;-72
2021/12/20 10:35:37;;;;;;;7.50;1.42;;;;;;;5.10;100.00;102576.53;4990907;28;20218;-72
2021/12/20 10:38:06;;;;;;;6.65;1.48;;;;;;;5.12;100.00;102580.69;4992080;28;20502;-72
2021/12/20 10:40:46;;;;;;;7.05;1.00;;;;;;;5.07;100.00;102572.41;4990312;28;20105;-72
2021/12/20 10:43:14;;;;;;;8.60;1.33;;;;;;;5.02;100.00;102586.19;4994660;28;20913;-72
2021/12/20 10:45:40;;;;;;;3.95;0.80;;;;;;;5.06;100.00;102582.22;4992426;28;20128;-71
2021/12/20 10:48:10;;;;;;;7.35;1.38;;;;;;;5.02;100.00;102572.88;4989992;28;20104;-72
2021/12/20 10:50:42;;;;;;;4.40;1.20;;;;;;;5.05;100.00;102571.75;4991901;28;20036;-72
2021/12/20 10:53:26;;;;;;;5.68;1.10;;;;;;;5.05;100.00;102569.91;4991615;28;20156;-72
2021/12/20 10:56:00;;;;;;;4.60;1.15;;;;;;;5.13;100.00;102566.41;4987906;28;20394;-71
2021/12/20 10:58:39;;;;;;;5.38;1.13;;;;;;;5.06;100.00;102560.09;4997248;28;21851;-71
2021/12/20 11:04:28;;;;;;;8.35;1.20;;;;;;;5.30;100.00;102562.75;4987430;28;20046;-70
2021/12/20 11:09:28;;;;;;;5.55;1.25;;;;;;;5.48;100.00;102564.38;5006551;28;20129;-70
2021/12/20 11:11:57;;;;;;;5.63;1.30;;;;;;;5.54;100.00;102571.69;4990947;28;20060;-71
2021/12/20 11:14:28;;;;;;;10.27;1.83;;;;;;;5.65;100.00;102563.34;4996230;28;20513;-71
2021/12/20 11:16:57;;;;;;;8.73;2.00;;;;;;;5.72;100.00;102567.00;4996342;28;20030;-71
2021/12/20 11:19:29;;;;;;;7.60;1.30;;;;;;;5.79;100.00;102567.16;4991900;28;20200;-71
2021/12/20 11:22:08;;;;;;;7.18;1.25;;;;;;;5.85;100.00;102561.94;4995271;28;20773;-71
2021/12/20 11:24:51;;;;;;;5.80;1.50;;;;;;;5.83;100.00;102563.13;4993994;28;20046;-71
2021/12/20 11:27:22;;;;;;;5.72;1.17;;;;;;;5.77;100.00;102553.16;4994462;28;20310;-71
2021/12/20 11:29:52;;;;;;;9.97;1.40;;;;;;;5.68;100.00;102564.81;4992986;28;20053;-71
2021/12/20 11:32:21;;;;;;;7.93;1.42;;;;;;;5.68;100.00;102563.00;4994145;28;20667;-71
2021/12/20 11:34:47;;;;;;;5.45;1.23;;;;;;;5.57;100.00;102550.88;4995541;28;20036;-71
2021/12/20 11:37:20;;;;;;;6.43;1.10;;;;;;;5.50;100.00;102551.72;4998632;28;20277;-71